»·PEaware :: N989KE KYKM-KPDX

N989KE :: KYKM-KPDX

FLIGHT INFORMATION

Flight Status: Arrived
Operator: Privately registered:
United States
More flights under this callsign
Pilot: E W. (29224)
Aircraft: BEECH AIRCRAFT DEBONAIR BONANZA
(BE33)
More flights by this aircraft type
Origin: KYKM Yakima Air Term/Mcallister
United States
Destination: KPDX Portland Intl
United States
More flights between these airports :: More routes between these airports
Route: +GROMO4 GUBSE V25 LTJ V520 OGYAJ
File this flight plan on PilotEdge
Remarks:
Altitude:
(Current/Filed)
8,000ft
Speed:
(Current/Filed)
160kts
Departed: 10-May-20 10:47 AM
Arrived: 10-May-20 11:42 AM
Distance/Time
Traveled:
103nm/0:55
Distance/Time
To Go:
Arrived

Flight Plot

Page will automatically refresh every two minutes.


Map Options




Map Legend


Flown Route
Filed Route
Departure Airport
Arrival Airport
Navaid (VOR, NDB)
Fix

Horizontal Profiles

Position Reports

Time Latitude Longitude Heading Altitude Ground
Speed
10-May-20 10:21 46.573006 -120.553560 289 1087ft 0kts
10-May-20 10:22 46.573006 -120.553560 289 1087ft 0kts
10-May-20 10:23 46.573006 -120.553560 289 1087ft 0kts
10-May-20 10:24 46.573006 -120.553560 289 1087ft 0kts
10-May-20 10:25 46.573006 -120.553560 289 1087ft 0kts
10-May-20 10:26 46.573006 -120.553560 289 1087ft 0kts
10-May-20 10:27 46.573006 -120.553560 289 1087ft 0kts
10-May-20 10:28 46.573006 -120.553560 289 1087ft 0kts
10-May-20 10:29 46.573006 -120.553560 289 1087ft 0kts
10-May-20 10:30 46.573006 -120.553560 289 1087ft 0kts
10-May-20 10:31 46.573006 -120.553560 289 1087ft 0kts
10-May-20 10:32 46.573006 -120.553560 289 1087ft 0kts
10-May-20 10:33 46.573006 -120.553560 289 1087ft 0kts
10-May-20 10:34 46.573006 -120.553560 289 1087ft 0kts
10-May-20 10:35 46.573006 -120.553560 289 1087ft 0kts
10-May-20 10:36 46.573006 -120.553560 289 1087ft 0kts
10-May-20 10:37 46.573006 -120.553560 289 1087ft 0kts
10-May-20 10:38 46.573006 -120.553560 289 1087ft 0kts
10-May-20 10:39 46.573011 -120.553620 259 1087ft 2kts
10-May-20 10:40 46.571721 -120.551551 110 1083ft 17kts
10-May-20 10:41 46.570420 -120.546664 110 1074ft 0kts
10-May-20 10:42 46.570354 -120.546105 101 1074ft 11kts
10-May-20 10:43 46.568324 -120.537978 110 1059ft 25kts
10-May-20 10:44 46.566531 -120.531619 160 1047ft 0kts
10-May-20 10:45 46.566531 -120.531619 160 1047ft 0kts
10-May-20 10:46 46.567968 -120.542070 290 1158ft 82kts
10-May-20 10:47 46.570047 -120.587399 274 1533ft 146kts
10-May-20 10:48 46.569007 -120.639086 269 2722ft 116kts
10-May-20 10:49 46.547258 -120.670443 182 3531ft 127kts
10-May-20 10:50 46.515915 -120.644868 145 3969ft 144kts
10-May-20 10:51 46.478384 -120.620255 141 4497ft 135kts
10-May-20 10:52 46.454321 -120.583059 126 5214ft 126kts
10-May-20 10:53 46.425202 -120.563284 199 5943ft 140kts
10-May-20 10:54 46.389011 -120.585087 194 6566ft 146kts
10-May-20 10:55 46.350820 -120.613921 204 7079ft 146kts
10-May-20 10:56 46.317188 -120.640353 203 7943ft 128kts
10-May-20 10:57 46.287564 -120.663163 202 8825ft 109kts
10-May-20 10:58 46.263719 -120.681851 195 9646ft 79kts
10-May-20 10:59 46.239355 -120.695665 218 9988ft 105kts
10-May-20 11:00 46.208854 -120.723624 205 9963ft 146kts
10-May-20 11:01 46.171404 -120.752488 204 9986ft 157kts
10-May-20 11:02 46.132403 -120.782275 205 9976ft 160kts
10-May-20 11:03 46.093028 -120.812438 204 9966ft 160kts
10-May-20 11:04 46.053460 -120.842163 204 9963ft 161kts
10-May-20 11:05 46.014017 -120.872171 203 9964ft 160kts
10-May-20 11:06 45.974869 -120.901868 202 9952ft 157kts
10-May-20 11:07 45.936244 -120.931344 202 9952ft 156kts
10-May-20 11:08 45.897921 -120.960398 202 9952ft 155kts
10-May-20 11:09 45.859443 -120.989698 202 9941ft 156kts
10-May-20 11:10 45.821023 -121.018715 202 9925ft 156kts
10-May-20 11:11 45.782417 -121.047726 202 9909ft 157kts
10-May-20 11:13 45.743791 -121.076977 202 9894ft 157kts
10-May-20 11:14 45.709807 -121.114191 251 9873ft 169kts
10-May-20 11:15 45.698328 -121.179413 249 9841ft 169kts
10-May-20 11:16 45.685848 -121.244567 249 9826ft 170kts
10-May-20 11:17 45.673400 -121.309938 249 9826ft 170kts
10-May-20 11:18 45.661000 -121.375081 249 9826ft 170kts
10-May-20 11:19 45.648741 -121.439618 249 9953ft 164kts
10-May-20 11:20 45.636519 -121.503441 249 9965ft 168kts
10-May-20 11:21 45.624011 -121.568262 249 9964ft 169kts
10-May-20 11:22 45.611461 -121.633469 248 9964ft 170kts
10-May-20 11:23 45.598771 -121.698805 248 9963ft 170kts
10-May-20 11:24 45.586128 -121.763927 248 9970ft 169kts
10-May-20 11:25 45.573553 -121.828824 248 9977ft 170kts
10-May-20 11:26 45.562184 -121.893885 279 9984ft 176kts
10-May-20 11:27 45.576113 -121.961382 283 9975ft 178kts
10-May-20 11:28 45.590632 -122.031503 283 9562ft 198kts
10-May-20 11:29 45.606453 -122.110583 283 8783ft 214kts
10-May-20 11:30 45.622334 -122.193096 283 7995ft 216kts
10-May-20 11:31 45.637672 -122.276020 283 7205ft 216kts
10-May-20 11:31 45.650064 -122.345108 283 6549ft 215kts
10-May-20 11:33 45.666921 -122.441699 283 5631ft 214kts
10-May-20 11:34 45.681264 -122.523873 283 4800ft 213kts
10-May-20 11:34 45.693356 -122.592203 283 3972ft 213kts
10-May-20 11:36 45.678911 -122.671495 210 2809ft 187kts
10-May-20 11:36 45.647817 -122.696335 196 1202ft 115kts
10-May-20 11:37 45.624426 -122.684527 116 913ft 87kts
10-May-20 11:38 45.613788 -122.650271 105 628ft 99kts
10-May-20 11:39 45.602648 -122.615542 119 333ft 101kts
10-May-20 11:40 45.591515 -122.587135 117 20ft 42kts
10-May-20 11:41 45.588388 -122.582389 198 20ft 1kts
10-May-20 11:42 45.586250 -122.579325 131 20ft 12kts
10-May-20 11:43 45.586176 -122.580067 189 20ft 0kts

Navigation Log

Ident Type
Flight plan parsing failed, navigation log unavailable